createdAt,value
2023-03-11T00:00:50.679Z,33.18
2023-03-11T00:01:50.692Z,32.59
2023-03-11T00:04:50.613Z,33.27
2023-03-11T00:05:50.589Z,32.92
2023-03-11T00:06:50.606Z,32.95
2023-03-11T00:11:52.375Z,33.16
2023-03-11T00:12:52.185Z,33.50
2023-03-11T00:13:52.336Z,34.12
2023-03-11T00:22:51.523Z,34.81
2023-03-11T00:23:51.572Z,34.55
2023-03-11T00:24:51.343Z,34.62
2023-03-11T00:25:51.293Z,34.83
2023-03-11T00:26:51.273Z,34.86
2023-03-11T01:24:46.162Z,32.73
2023-03-11T01:51:42.023Z,31.03
2023-03-11T01:52:41.744Z,31.10
2023-03-11T01:54:41.719Z,31.24
2023-03-11T01:55:41.666Z,31.27
2023-03-11T02:18:41.784Z,33.30
2023-03-11T02:19:41.592Z,33.17
2023-03-11T02:20:41.746Z,33.12
2023-03-11T02:21:41.537Z,33.10
2023-03-11T02:22:41.514Z,33.23
2023-03-11T02:23:41.458Z,33.63
2023-03-11T03:09:22.119Z,33.91
2023-03-11T03:16:21.359Z,34.48
2023-03-11T03:17:21.427Z,34.27
2023-03-11T03:18:21.131Z,34.17
2023-03-11T03:19:21.150Z,33.91
2023-03-11T03:20:21.135Z,34.07
2023-03-11T03:21:21.141Z,34.01
2023-03-11T03:22:21.148Z,33.75
2023-03-11T03:23:21.084Z,33.84
2023-03-11T03:25:41.405Z,33.54
2023-03-11T03:26:41.201Z,33.79
2023-03-11T03:27:41.383Z,34.24
2023-03-11T03:28:41.155Z,34.12
2023-03-11T03:29:41.085Z,34.26
2023-03-11T03:30:41.140Z,34.45
2023-03-11T03:31:41.115Z,34.34
2023-03-11T03:32:41.201Z,34.36
2023-03-11T03:33:41.163Z,34.35
2023-03-11T03:34:41.067Z,34.66
2023-03-11T03:35:41.069Z,34.69
2023-03-11T03:36:41.073Z,34.57
2023-03-11T03:37:41.084Z,34.80
2023-03-11T03:38:41.052Z,34.63
2023-03-11T03:42:20.949Z,35.36
2023-03-11T03:44:40.515Z,35.33
2023-03-11T03:45:40.551Z,35.00
2023-03-11T03:56:16.257Z,34.87
2023-03-11T03:57:16.264Z,35.28
2023-03-11T03:58:15.964Z,34.97
2023-03-11T04:00:35.824Z,34.87
2023-03-11T04:01:35.815Z,34.48
2023-03-11T04:02:35.710Z,34.31
2023-03-11T04:03:35.615Z,34.23
2023-03-11T04:04:35.584Z,34.09
2023-03-11T04:05:35.594Z,34.48
2023-03-11T04:06:35.609Z,33.98
2023-03-11T04:07:35.604Z,34.05
2023-03-11T04:08:35.562Z,34.25
2023-03-11T04:09:35.567Z,33.96
2023-03-11T04:10:35.582Z,33.94
2023-03-11T04:11:35.581Z,34.03
2023-03-11T04:12:35.538Z,34.10
2023-03-11T04:13:35.553Z,34.11
2023-03-11T04:14:35.513Z,33.42
2023-03-11T04:15:35.506Z,33.45
2023-03-11T04:16:35.535Z,33.62
2023-03-11T04:17:35.533Z,33.83
2023-03-11T04:18:35.471Z,33.85
2023-03-11T04:19:35.485Z,33.08
2023-03-11T04:20:35.492Z,32.63
2023-03-11T04:22:35.462Z,32.90
2023-03-11T04:23:35.476Z,33.27
2023-03-11T04:24:35.476Z,33.27
2023-03-11T04:25:35.424Z,33.35
2023-03-11T04:26:35.419Z,32.94
2023-03-11T04:27:35.429Z,33.24
2023-03-11T04:28:35.395Z,33.45
2023-03-11T04:29:35.413Z,33.68
2023-03-11T04:30:35.409Z,33.66
2023-03-11T04:31:35.445Z,33.81
2023-03-11T04:32:35.434Z,33.44
2023-03-11T04:33:35.415Z,33.56
2023-03-11T04:34:35.374Z,33.38
2023-03-11T04:36:55.546Z,34.07
2023-03-11T04:37:55.762Z,33.92
2023-03-11T04:38:55.477Z,34.05
2023-03-11T04:39:55.465Z,34.14
2023-03-11T04:40:55.454Z,34.03
2023-03-11T04:41:55.443Z,33.68
2023-03-11T04:42:55.459Z,33.64
2023-03-11T04:43:55.424Z,33.58
2023-03-11T04:44:55.418Z,33.79
2023-03-11T04:47:15.739Z,33.57
2023-03-11T04:48:15.539Z,33.44
2023-03-11T04:49:15.755Z,33.02
2023-03-11T04:50:15.495Z,33.16
2023-03-11T04:51:15.446Z,33.21
2023-03-11T04:52:15.514Z,32.97
2023-03-11T04:57:13.638Z,33.24
2023-03-11T05:05:54.125Z,32.87
2023-03-11T05:08:14.016Z,32.77
2023-03-11T05:09:13.962Z,32.93
2023-03-11T05:10:13.776Z,32.92
2023-03-11T05:11:13.712Z,32.72
2023-03-11T05:12:13.738Z,32.76
2023-03-11T05:13:13.711Z,32.52
2023-03-11T05:14:13.730Z,32.67
2023-03-11T05:15:13.697Z,32.87
2023-03-11T05:16:13.711Z,32.81
2023-03-11T05:17:13.697Z,32.51
2023-03-11T05:31:33.751Z,32.83
2023-03-11T05:33:53.656Z,33.19
2023-03-11T05:34:53.908Z,33.07
2023-03-11T05:36:08.964Z,33.14
2023-03-11T05:36:53.466Z,33.64
2023-03-11T05:37:53.761Z,33.39
2023-03-11T05:38:53.427Z,33.34
2023-03-11T05:39:53.484Z,33.16
2023-03-11T05:40:56.117Z,33.11
2023-03-11T05:47:33.753Z,32.87
2023-03-11T05:49:53.854Z,33.17
2023-03-11T05:50:53.633Z,32.78
2023-03-11T05:51:54.039Z,32.99
2023-03-11T05:52:53.603Z,32.80
2023-03-11T05:53:53.585Z,32.84
2023-03-11T05:54:53.591Z,32.76
2023-03-11T05:55:53.565Z,32.69
2023-03-11T05:58:14.017Z,33.20
2023-03-11T05:59:16.268Z,33.29
2023-03-11T06:01:13.648Z,32.79
2023-03-11T06:02:13.611Z,32.99
2023-03-11T06:03:13.613Z,32.87
2023-03-11T06:04:13.764Z,32.95
2023-03-11T06:05:14.120Z,33.17
2023-03-11T06:06:13.589Z,33.27
2023-03-11T06:07:13.583Z,32.80
2023-03-11T06:08:13.532Z,32.95
2023-03-11T06:09:13.557Z,32.80
2023-03-11T06:10:13.626Z,32.78
2023-03-11T06:11:13.573Z,32.74
2023-03-11T06:12:13.582Z,32.65
2023-03-11T06:13:13.532Z,32.46
2023-03-11T06:14:13.537Z,32.39
2023-03-11T06:15:13.604Z,32.56
2023-03-11T06:16:13.567Z,32.77
2023-03-11T06:17:13.538Z,32.67
2023-03-11T06:18:13.571Z,32.07
2023-03-11T06:19:13.504Z,32.09
2023-03-11T06:20:13.521Z,32.11
2023-03-11T06:21:13.492Z,32.28
2023-03-11T06:22:13.492Z,32.09
2023-03-11T06:23:13.489Z,31.89
2023-03-11T06:24:13.507Z,31.90
2023-03-11T06:25:13.458Z,32.08
2023-03-11T06:26:13.476Z,32.76
2023-03-11T06:27:13.469Z,32.64
2023-03-11T06:28:13.438Z,32.79
2023-03-11T06:29:13.436Z,32.30
2023-03-11T06:30:13.445Z,32.08
2023-03-11T06:31:13.465Z,32.30
2023-03-11T06:32:13.533Z,31.90
2023-03-11T06:34:13.494Z,31.97
2023-03-11T06:35:13.726Z,31.40
2023-03-11T06:38:53.552Z,32.15
2023-03-11T06:39:53.195Z,31.95
2023-03-11T06:40:53.398Z,31.64
2023-03-11T06:41:53.089Z,32.21
2023-03-11T06:42:53.116Z,32.03
2023-03-11T06:43:53.122Z,32.06
2023-03-11T06:44:53.085Z,32.60
2023-03-11T06:45:53.082Z,31.73
2023-03-11T06:46:53.899Z,31.86
2023-03-11T06:47:53.088Z,32.42
2023-03-11T06:48:53.026Z,31.99
2023-03-11T06:49:53.053Z,32.13
2023-03-11T06:50:53.047Z,31.95
2023-03-11T06:51:53.059Z,31.84
2023-03-11T06:52:52.997Z,32.13
2023-03-11T06:53:53.028Z,32.00
2023-03-11T06:54:53.032Z,32.11
2023-03-11T06:55:52.980Z,31.68
2023-03-11T06:56:52.982Z,31.95
2023-03-11T06:57:53.019Z,32.06
2023-03-11T06:58:52.977Z,31.91
2023-03-11T06:59:52.977Z,31.97
2023-03-11T07:00:53.026Z,32.07
2023-03-11T07:01:52.986Z,31.58
2023-03-11T07:02:52.928Z,31.58
2023-03-11T07:03:53.070Z,31.64
2023-03-11T07:04:52.934Z,31.92
2023-03-11T07:05:52.951Z,31.61
2023-03-11T07:06:52.909Z,31.49
2023-03-11T07:07:52.942Z,31.75
2023-03-11T07:08:52.939Z,31.47
2023-03-11T07:09:52.883Z,31.52
2023-03-11T07:10:52.982Z,32.16
2023-03-11T07:11:53.125Z,31.89
2023-03-11T07:18:52.088Z,32.01
2023-03-11T07:19:51.991Z,31.78
2023-03-11T07:20:51.954Z,31.76
2023-03-11T07:57:26.648Z,31.65
2023-03-11T07:59:25.994Z,31.66
2023-03-11T08:00:25.974Z,31.71
2023-03-11T08:01:25.962Z,31.77
2023-03-11T08:02:25.933Z,32.14
2023-03-11T08:03:25.979Z,31.84
2023-03-11T08:04:25.988Z,32.13
2023-03-11T08:05:25.933Z,31.92
2023-03-11T08:06:25.909Z,31.98
2023-03-11T08:07:25.928Z,32.25
2023-03-11T08:08:25.924Z,32.10
2023-03-11T08:09:25.923Z,31.81
2023-03-11T08:10:25.872Z,31.46
2023-03-11T08:11:25.874Z,31.42
2023-03-11T08:12:25.876Z,31.57
2023-03-11T08:17:25.103Z,31.42
2023-03-11T08:19:44.945Z,31.73
2023-03-11T08:20:44.970Z,31.65
2023-03-11T08:21:44.741Z,31.60
2023-03-11T08:22:57.236Z,31.62
2023-03-11T08:23:45.705Z,31.71
2023-03-11T08:24:44.673Z,31.49
2023-03-11T08:25:44.683Z,31.57
2023-03-11T08:26:44.669Z,31.59
2023-03-11T08:27:44.666Z,31.72
2023-03-11T08:28:44.686Z,31.62
2023-03-11T08:29:44.634Z,31.65
2023-03-11T08:30:44.706Z,31.70
2023-03-11T08:31:44.643Z,31.46
2023-03-11T08:32:44.724Z,31.49
2023-03-11T08:33:44.638Z,31.72
2023-03-11T08:34:44.679Z,31.52
2023-03-11T08:35:44.609Z,31.51
2023-03-11T08:36:44.591Z,31.52
2023-03-11T08:37:44.662Z,31.31
2023-03-11T08:38:44.645Z,31.10
2023-03-11T08:39:44.624Z,31.82
2023-03-11T08:40:44.653Z,31.42
2023-03-11T08:41:44.694Z,31.29
2023-03-11T08:50:24.885Z,29.99
2023-03-11T08:51:24.669Z,29.69
2023-03-11T08:52:24.901Z,29.26
2023-03-11T08:53:24.594Z,29.64
2023-03-11T08:54:24.592Z,29.37
2023-03-11T08:55:24.581Z,29.65
2023-03-11T08:56:24.554Z,30.13
2023-03-11T08:57:24.529Z,30.59
2023-03-11T08:58:24.550Z,30.09
2023-03-11T08:59:24.560Z,30.28
2023-03-11T09:00:24.514Z,30.48
2023-03-11T09:01:24.526Z,30.00
2023-03-11T09:02:24.574Z,29.91
2023-03-11T09:03:24.553Z,29.32
2023-03-11T09:04:24.487Z,29.12
2023-03-11T09:05:24.506Z,29.04
2023-03-11T09:06:24.505Z,28.85
2023-03-11T09:07:24.531Z,29.01
2023-03-11T09:08:24.513Z,28.94
2023-03-11T09:09:24.518Z,29.10
2023-03-11T09:10:24.486Z,29.30
2023-03-11T09:11:24.506Z,29.18
2023-03-11T09:12:24.540Z,28.89
2023-03-11T09:13:24.437Z,29.06
2023-03-11T09:14:24.415Z,29.20
2023-03-11T09:15:24.491Z,29.36
2023-03-11T09:16:24.494Z,28.78
2023-03-11T09:17:24.425Z,28.44
2023-03-11T09:18:24.442Z,29.48
2023-03-11T09:19:24.435Z,28.91
2023-03-11T09:20:24.413Z,29.03
2023-03-11T09:21:24.422Z,28.83
2023-03-11T09:22:24.395Z,29.05
2023-03-11T09:23:24.422Z,28.53
2023-03-11T09:24:24.364Z,28.68
2023-03-11T09:25:24.385Z,28.95
2023-03-11T09:26:24.389Z,29.18
2023-03-11T09:27:24.335Z,28.63
2023-03-11T09:28:24.354Z,28.88
2023-03-11T09:29:24.345Z,28.96
2023-03-11T09:30:24.352Z,28.32
2023-03-11T09:31:24.344Z,28.54
2023-03-11T09:32:24.315Z,28.89
2023-03-11T09:33:24.330Z,28.10
2023-03-11T09:34:24.353Z,28.07
2023-03-11T09:35:24.320Z,27.42
2023-03-11T09:36:24.299Z,27.84
2023-03-11T09:37:24.276Z,27.84
2023-03-11T09:38:24.276Z,28.00
2023-03-11T09:39:24.277Z,27.37
2023-03-11T09:40:24.345Z,27.32
2023-03-11T09:41:24.300Z,28.22
2023-03-11T09:43:24.411Z,27.10
2023-03-11T09:44:24.666Z,27.16
2023-03-11T09:45:24.324Z,26.96
2023-03-11T09:46:24.557Z,27.03
2023-03-11T09:47:24.320Z,27.28
2023-03-11T09:48:24.309Z,26.64
2023-03-11T09:49:25.389Z,27.13
2023-03-11T09:50:24.310Z,26.75
2023-03-11T09:51:24.380Z,27.12
2023-03-11T09:53:24.268Z,27.68
2023-03-11T09:54:24.432Z,27.39
2023-03-11T09:55:24.213Z,27.37
2023-03-11T09:56:24.229Z,27.38
2023-03-11T09:57:24.527Z,27.80
2023-03-11T09:58:24.177Z,27.30
2023-03-11T09:59:24.140Z,27.07
2023-03-11T10:00:24.140Z,27.67
2023-03-11T10:01:24.167Z,26.63
2023-03-11T10:02:24.247Z,26.08
2023-03-11T10:03:24.158Z,26.60
2023-03-11T10:04:24.136Z,25.96
2023-03-11T10:05:24.070Z,26.34
2023-03-11T10:06:24.126Z,25.94
2023-03-11T10:07:24.098Z,26.28
2023-03-11T10:08:24.112Z,26.03
2023-03-11T10:09:24.050Z,25.68
2023-03-11T10:10:24.087Z,26.08
2023-03-11T10:11:24.046Z,26.17
2023-03-11T10:14:02.731Z,26.09
2023-03-11T10:15:02.621Z,25.15
2023-03-11T10:16:02.763Z,25.34
2023-03-11T10:17:02.497Z,24.78
2023-03-11T10:18:02.498Z,23.98
2023-03-11T10:19:02.513Z,23.77
2023-03-11T10:20:02.524Z,24.04
2023-03-11T10:21:02.483Z,24.10
2023-03-11T10:22:02.472Z,23.81
2023-03-11T10:23:02.502Z,23.48
2023-03-11T10:24:02.576Z,23.21
2023-03-11T10:26:48.599Z,23.01
2023-03-11T10:27:48.390Z,23.28
2023-03-11T10:30:07.832Z,22.46
2023-03-11T10:31:07.757Z,21.81
2023-03-11T10:32:07.678Z,21.79
2023-03-11T10:33:07.672Z,22.52
2023-03-11T10:34:07.692Z,22.09
2023-03-11T10:35:07.661Z,21.38
2023-03-11T10:36:07.660Z,21.27
2023-03-11T10:39:07.589Z,21.58
2023-03-11T10:40:07.561Z,20.66
2023-03-11T10:41:07.618Z,21.03
2023-03-11T10:42:07.570Z,20.44
2023-03-11T10:43:07.587Z,20.24
2023-03-11T10:45:07.557Z,21.42
2023-03-11T10:46:07.606Z,20.61
2023-03-11T10:47:07.564Z,20.76
2023-03-11T10:48:07.617Z,21.14
2023-03-11T10:49:07.520Z,21.43
2023-03-11T10:50:07.528Z,21.39
2023-03-11T10:51:07.542Z,21.58
2023-03-11T10:52:07.520Z,21.39
2023-03-11T10:53:07.553Z,20.36
2023-03-11T10:56:07.501Z,20.84
2023-03-11T10:57:07.477Z,21.65
2023-03-11T10:58:07.524Z,21.40
2023-03-11T10:59:07.499Z,21.29
2023-03-11T12:40:19.787Z,19.42
2023-03-11T12:50:59.402Z,19.10
2023-03-11T12:51:59.222Z,19.40
2023-03-11T12:52:58.925Z,18.83
2023-03-11T13:01:38.187Z,19.95
2023-03-11T13:02:37.988Z,19.79
2023-03-11T13:03:37.859Z,19.89
2023-03-11T13:04:37.870Z,19.51
2023-03-11T13:05:37.881Z,20.23
2023-03-11T13:06:37.840Z,20.54
2023-03-11T13:07:37.861Z,20.80
2023-03-11T13:08:37.835Z,19.07
2023-03-11T13:09:37.824Z,18.78
2023-03-11T13:10:37.854Z,19.17
2023-03-11T13:11:37.847Z,19.12
2023-03-11T13:12:37.829Z,19.15
2023-03-11T13:13:37.806Z,18.85
2023-03-11T13:14:37.969Z,19.05
2023-03-11T13:15:38.012Z,19.55
2023-03-11T13:16:38.879Z,19.65
2023-03-11T13:17:37.806Z,19.56
2023-03-11T13:18:37.845Z,19.19
2023-03-11T13:19:37.818Z,19.27
2023-03-11T13:20:37.828Z,19.55
2023-03-11T13:21:37.806Z,19.38
2023-03-11T13:22:37.826Z,19.16
2023-03-11T13:23:37.842Z,19.31
2023-03-11T13:24:38.061Z,19.26
2023-03-11T13:25:37.978Z,19.31
2023-03-11T13:27:57.753Z,20.10
2023-03-11T13:37:37.576Z,19.27
2023-03-11T13:38:37.361Z,19.03
2023-03-11T13:39:37.042Z,20.17
2023-03-11T13:40:37.452Z,20.74
2023-03-11T13:41:37.554Z,19.99
2023-03-11T13:42:36.988Z,19.68
2023-03-11T13:43:37.597Z,19.64
2023-03-11T13:44:36.975Z,19.78
2023-03-11T13:45:37.013Z,20.17
2023-03-11T13:46:36.978Z,21.66
2023-03-11T13:47:36.982Z,20.29
2023-03-11T13:48:37.620Z,20.00
2023-03-11T13:49:36.933Z,20.04
2023-03-11T13:50:36.940Z,20.61
2023-03-11T13:51:36.965Z,20.75
2023-03-11T13:52:36.914Z,19.96
2023-03-11T13:53:36.915Z,20.46
2023-03-11T13:54:36.961Z,21.19
2023-03-11T13:55:36.956Z,21.38
2023-03-11T13:56:36.873Z,20.38
2023-03-11T13:57:36.897Z,20.55
2023-03-11T13:58:36.888Z,21.01
2023-03-11T13:59:36.857Z,21.03
2023-03-11T14:01:56.467Z,21.94
2023-03-11T14:02:56.349Z,22.12
2023-03-11T14:05:16.577Z,20.84
2023-03-11T14:07:35.664Z,21.90
2023-03-11T14:08:35.633Z,21.71
2023-03-11T14:10:35.233Z,21.95
2023-03-11T14:11:35.314Z,22.30
2023-03-11T14:12:35.210Z,22.13
2023-03-11T14:13:35.353Z,22.16
2023-03-11T14:14:35.223Z,22.21
2023-03-11T14:15:35.169Z,22.49
2023-03-11T14:16:35.287Z,22.48
2023-03-11T14:17:35.185Z,22.64
2023-03-11T14:18:35.198Z,22.21
2023-03-11T14:19:35.210Z,22.71
2023-03-11T14:20:35.180Z,22.78
2023-03-11T14:21:35.220Z,22.64
2023-03-11T14:22:35.138Z,23.27
2023-03-11T14:23:35.127Z,23.70
2023-03-11T14:24:35.121Z,22.76
2023-03-11T14:25:35.112Z,23.14
2023-03-11T14:26:35.198Z,23.36
2023-03-11T14:27:35.118Z,23.08
2023-03-11T14:28:35.109Z,23.10
2023-03-11T14:29:35.141Z,23.26
2023-03-11T14:30:35.129Z,22.98
2023-03-11T14:31:35.167Z,23.38
2023-03-11T14:32:35.148Z,23.11
2023-03-11T14:33:35.093Z,23.60
2023-03-11T14:34:35.098Z,23.74
2023-03-11T14:35:35.059Z,24.29
2023-03-11T14:36:35.056Z,24.12
2023-03-11T14:37:35.067Z,23.59
2023-03-11T14:38:35.022Z,23.88
2023-03-11T14:39:35.037Z,23.94
2023-03-11T14:40:35.033Z,24.01
2023-03-11T14:41:35.041Z,24.50
2023-03-11T14:42:35.018Z,24.56
2023-03-11T14:43:35.001Z,24.13
2023-03-11T14:45:55.190Z,24.29
2023-03-11T14:46:54.952Z,24.08
2023-03-11T14:47:55.088Z,24.06
2023-03-11T14:48:54.875Z,24.31
2023-03-11T14:49:54.874Z,24.32
2023-03-11T14:52:15.137Z,24.72
2023-03-11T14:53:14.959Z,25.05
2023-03-11T14:55:34.835Z,25.98
2023-03-11T14:57:34.872Z,25.45
2023-03-11T14:58:34.732Z,25.14
2023-03-11T14:59:34.669Z,25.13
2023-03-11T15:00:34.665Z,25.85
2023-03-11T15:01:34.750Z,25.50
2023-03-11T15:02:34.639Z,25.75
2023-03-11T15:03:34.653Z,25.27
2023-03-11T15:04:34.653Z,25.11
2023-03-11T15:05:34.596Z,25.59
2023-03-11T15:06:34.645Z,25.41
2023-03-11T15:07:34.712Z,25.60
2023-03-11T15:08:34.612Z,25.65
2023-03-11T15:09:34.619Z,25.59
2023-03-11T15:10:34.591Z,25.58
2023-03-11T15:11:34.589Z,25.89
2023-03-11T15:31:15.000Z,28.90
2023-03-11T15:32:14.736Z,28.96
2023-03-11T15:33:14.820Z,28.96
2023-03-11T15:34:14.617Z,29.04
2023-03-11T15:35:14.627Z,29.07
2023-03-11T15:36:14.599Z,29.04
2023-03-11T15:37:14.598Z,29.33
2023-03-11T15:38:14.560Z,29.08
2023-03-11T15:39:14.625Z,28.77
2023-03-11T15:40:14.573Z,28.81
2023-03-11T15:41:14.571Z,28.91
2023-03-11T15:42:14.598Z,28.91
2023-03-11T15:43:14.549Z,29.08
2023-03-11T15:44:14.589Z,28.84
2023-03-11T15:45:14.557Z,28.52
2023-03-11T15:56:54.033Z,29.54
2023-03-11T16:08:30.085Z,31.17
2023-03-11T16:12:07.710Z,31.43
2023-03-11T16:13:07.408Z,30.93
2023-03-11T16:14:07.696Z,30.88
2023-03-11T16:15:07.412Z,30.60
2023-03-11T16:16:07.428Z,30.29
2023-03-11T16:17:07.454Z,30.45
2023-03-11T16:18:07.469Z,30.34
2023-03-11T16:19:07.444Z,30.64
2023-03-11T16:20:07.543Z,30.69
2023-03-11T16:36:07.694Z,30.96
2023-03-11T16:38:28.458Z,30.71
2023-03-11T16:39:28.181Z,31.45
2023-03-11T16:40:28.279Z,31.44
2023-03-11T16:52:06.754Z,31.34
2023-03-11T16:53:06.619Z,30.99
2023-03-11T16:54:06.203Z,31.35
2023-03-11T16:55:06.342Z,31.47
2023-03-11T16:56:06.537Z,31.04
2023-03-11T16:57:06.368Z,31.12
2023-03-11T16:58:06.851Z,31.00
2023-03-11T16:59:06.203Z,31.30
2023-03-11T17:00:06.161Z,31.72
2023-03-11T17:01:06.309Z,31.25
2023-03-11T17:02:06.218Z,31.02
2023-03-11T17:03:06.143Z,31.24
2023-03-11T17:04:06.103Z,30.64
2023-03-11T17:05:06.177Z,31.16
2023-03-11T17:06:06.145Z,30.84
2023-03-11T17:07:06.088Z,30.80
2023-03-11T17:08:06.119Z,31.08
2023-03-11T17:09:06.159Z,31.02
2023-03-11T17:10:06.122Z,30.92
2023-03-11T17:11:06.115Z,30.96
2023-03-11T17:12:06.138Z,31.69
2023-03-11T17:13:06.081Z,31.36
2023-03-11T17:14:15.867Z,31.30
2023-03-11T17:15:07.060Z,31.41
2023-03-11T17:16:06.050Z,31.32
2023-03-11T17:17:06.071Z,31.61
2023-03-11T17:18:06.006Z,31.56
2023-03-11T17:19:06.048Z,31.38
2023-03-11T17:20:06.036Z,31.29
2023-03-11T17:21:06.036Z,31.39
2023-03-11T17:22:06.022Z,31.27
2023-03-11T17:23:06.008Z,31.04
2023-03-11T17:24:06.010Z,31.07
2023-03-11T17:25:06.016Z,31.17
2023-03-11T17:26:06.268Z,31.10
2023-03-11T17:27:06.030Z,31.39
2023-03-11T17:28:06.109Z,31.26
2023-03-11T17:29:06.098Z,31.63
2023-03-11T17:30:06.196Z,31.65
2023-03-11T17:31:06.178Z,31.73
2023-03-11T17:32:06.175Z,31.06
2023-03-11T17:33:06.237Z,31.23
2023-03-11T17:34:06.236Z,31.60
2023-03-11T17:35:06.296Z,31.29
2023-03-11T17:36:06.292Z,31.44
2023-03-11T17:37:06.296Z,31.09
2023-03-11T17:38:06.311Z,31.20
2023-03-11T17:39:06.369Z,31.24
2023-03-11T17:40:06.468Z,31.35
2023-03-11T17:41:06.424Z,31.43
2023-03-11T17:42:06.412Z,31.49
2023-03-11T17:43:06.526Z,31.23
2023-03-11T17:44:06.529Z,31.23
2023-03-11T17:45:06.617Z,31.55
2023-03-11T17:46:06.556Z,31.07
2023-03-11T17:47:06.673Z,31.14
2023-03-11T17:48:06.631Z,31.02
2023-03-11T17:49:06.822Z,30.89
2023-03-11T17:50:06.771Z,31.15
2023-03-11T17:51:06.782Z,30.45
2023-03-11T17:52:06.772Z,30.43
2023-03-11T17:53:06.848Z,30.70
2023-03-11T17:54:06.793Z,30.75
2023-03-11T17:55:06.977Z,31.02
2023-03-11T17:56:06.952Z,30.74
2023-03-11T17:57:07.005Z,31.21
2023-03-11T17:58:06.998Z,30.87
2023-03-11T17:59:07.052Z,30.76
2023-03-11T18:00:07.139Z,30.75
2023-03-11T18:01:07.200Z,30.82
2023-03-11T18:02:07.208Z,30.39
2023-03-11T18:03:07.186Z,30.40
2023-03-11T18:04:07.264Z,30.64
2023-03-11T18:05:07.313Z,30.71
2023-03-11T18:06:07.356Z,30.30
2023-03-11T18:07:07.372Z,30.53
2023-03-11T18:08:07.379Z,30.59
2023-03-11T18:09:07.412Z,30.67
2023-03-11T18:10:07.498Z,31.07
2023-03-11T18:11:07.507Z,30.33
2023-03-11T18:12:07.548Z,30.33
2023-03-11T18:13:07.557Z,30.35
2023-03-11T18:14:07.597Z,30.52
2023-03-11T18:15:07.661Z,30.58
2023-03-11T18:16:07.701Z,30.13
2023-03-11T18:17:07.687Z,30.02
2023-03-11T18:18:07.748Z,30.28
2023-03-11T18:19:07.730Z,30.57
2023-03-11T18:20:07.745Z,30.62
2023-03-11T18:21:07.811Z,30.59
2023-03-11T18:22:07.819Z,30.50
2023-03-11T18:23:07.882Z,30.31
2023-03-11T18:24:07.825Z,30.45
2023-03-11T18:25:07.844Z,30.18
2023-03-11T18:26:08.105Z,30.15
2023-03-11T18:27:07.838Z,30.19
2023-03-11T18:28:07.860Z,29.98
2023-03-11T18:29:07.904Z,29.74
2023-03-11T18:30:07.922Z,29.71
2023-03-11T18:31:07.920Z,30.21
2023-03-11T18:32:08.068Z,30.48
2023-03-11T18:33:08.022Z,31.01
2023-03-11T18:34:08.018Z,31.89
2023-03-11T18:35:08.058Z,31.84
2023-03-11T18:36:08.081Z,31.89
2023-03-11T18:37:08.139Z,32.11
2023-03-11T18:38:08.161Z,32.86
2023-03-11T18:39:08.239Z,33.08
2023-03-11T18:40:24.572Z,33.98
2023-03-11T19:13:40.676Z,44.44
2023-03-11T19:15:28.196Z,44.51
2023-03-11T19:16:28.218Z,44.69
2023-03-11T19:17:28.170Z,44.98
2023-03-11T19:18:28.144Z,44.91
2023-03-11T19:31:28.030Z,44.07
2023-03-11T19:32:27.945Z,43.75
2023-03-11T19:33:44.062Z,43.91
2023-03-11T19:34:27.806Z,43.86
2023-03-11T19:35:27.968Z,43.67
2023-03-11T19:36:27.745Z,44.00
2023-03-11T19:37:27.734Z,43.71
2023-03-11T19:38:43.990Z,43.95
2023-03-11T19:39:27.779Z,43.64
2023-03-11T19:40:28.030Z,44.04
2023-03-11T19:41:27.723Z,43.40
2023-03-11T19:42:27.673Z,43.79
2023-03-11T20:02:07.867Z,44.50
2023-03-11T20:03:07.874Z,44.40
2023-03-11T20:04:07.649Z,45.32
2023-03-11T20:07:27.851Z,43.99
2023-03-11T20:08:27.757Z,44.26
2023-03-11T20:09:28.716Z,44.39
